createdAt,value
2019-05-13T00:00:24.542Z,0.00
2019-05-13T00:01:24.519Z,0.00
2019-05-13T00:02:24.506Z,0.00
2019-05-13T00:03:24.491Z,0.00
2019-05-13T00:04:24.480Z,0.00
2019-05-13T00:05:24.483Z,0.00
2019-05-13T00:06:24.461Z,0.00
2019-05-13T00:07:24.454Z,0.00
2019-05-13T00:08:25.043Z,0.00
2019-05-13T00:09:24.666Z,0.00
2019-05-13T00:10:24.491Z,0.00
2019-05-13T00:11:24.407Z,0.00
2019-05-13T00:12:24.392Z,0.00
2019-05-13T00:13:24.382Z,0.00
2019-05-13T00:14:24.372Z,0.00
2019-05-13T00:15:24.430Z,0.00
2019-05-13T00:16:24.349Z,0.00
2019-05-13T00:17:24.339Z,0.00
2019-05-13T00:18:24.334Z,0.00
2019-05-13T00:19:24.323Z,0.00
2019-05-13T00:20:24.319Z,0.00
2019-05-13T00:21:24.295Z,0.00
2019-05-13T00:22:24.283Z,0.00
2019-05-13T00:23:24.271Z,0.00
2019-05-13T00:24:24.432Z,0.00
2019-05-13T00:25:24.338Z,0.00
2019-05-13T00:26:24.503Z,0.00
2019-05-13T00:27:24.227Z,0.00
2019-05-13T00:28:24.226Z,0.00
2019-05-13T00:29:24.210Z,0.00
2019-05-13T00:30:24.215Z,0.00
2019-05-13T00:31:24.288Z,0.00
2019-05-13T00:32:24.174Z,0.00
2019-05-13T00:33:24.526Z,0.00
2019-05-13T00:34:24.462Z,0.00
2019-05-13T00:35:24.164Z,0.00
2019-05-13T00:36:24.369Z,0.00
2019-05-13T00:37:24.527Z,0.00
2019-05-13T00:38:24.698Z,0.00
2019-05-13T00:39:24.660Z,0.00
2019-05-13T00:40:24.136Z,0.00
2019-05-13T00:41:24.526Z,0.00
2019-05-13T00:42:24.600Z,0.00
2019-05-13T00:43:24.536Z,0.00
2019-05-13T00:44:24.480Z,0.00
2019-05-13T00:45:24.595Z,0.00
2019-05-13T00:46:24.021Z,0.00
2019-05-13T00:47:24.009Z,0.00
2019-05-13T00:48:23.998Z,0.00
2019-05-13T00:49:24.066Z,0.00
2019-05-13T00:50:24.190Z,0.00
2019-05-13T00:51:24.388Z,0.00
2019-05-13T00:52:23.967Z,0.00
2019-05-13T00:53:23.954Z,0.00
2019-05-13T00:54:23.933Z,0.00
2019-05-13T00:55:24.976Z,0.00
2019-05-13T00:56:23.910Z,0.00
2019-05-13T00:57:23.917Z,0.00
2019-05-13T00:58:24.406Z,0.00
2019-05-13T00:59:24.310Z,0.00
2019-05-13T01:00:24.308Z,0.00
2019-05-13T01:01:24.384Z,0.00
2019-05-13T01:02:24.354Z,0.00
2019-05-13T01:03:26.353Z,0.00
2019-05-13T01:04:23.825Z,0.00
2019-05-13T01:05:23.815Z,0.00
2019-05-13T01:06:23.825Z,0.00
2019-05-13T01:07:28.591Z,0.00
2019-05-13T01:08:24.779Z,0.00
2019-05-13T01:09:23.861Z,0.00
2019-05-13T01:10:23.894Z,0.00
2019-05-13T01:11:23.803Z,0.00
2019-05-13T01:12:23.906Z,0.00
2019-05-13T01:13:23.921Z,0.00
2019-05-13T01:14:23.714Z,0.00
2019-05-13T01:15:24.748Z,0.00
2019-05-13T01:16:23.707Z,0.00
2019-05-13T01:17:23.698Z,0.00
2019-05-13T01:18:23.674Z,0.00
2019-05-13T01:19:23.844Z,0.00
2019-05-13T01:20:23.679Z,0.00
2019-05-13T01:21:24.026Z,0.00
2019-05-13T01:22:24.028Z,0.00
2019-05-13T01:23:24.127Z,0.00
2019-05-13T01:24:24.347Z,0.00
2019-05-13T01:25:24.414Z,0.00
2019-05-13T01:26:23.600Z,0.00
2019-05-13T01:27:24.012Z,0.00
2019-05-13T01:28:24.051Z,0.00
2019-05-13T01:29:23.924Z,0.00
2019-05-13T01:30:23.853Z,0.00
2019-05-13T01:31:24.026Z,0.00
2019-05-13T01:32:23.953Z,0.00
2019-05-13T01:33:23.738Z,0.00
2019-05-13T01:34:23.776Z,0.00
2019-05-13T01:35:23.774Z,0.00
2019-05-13T01:36:23.597Z,0.00
2019-05-13T01:37:32.182Z,0.00
2019-05-13T01:38:24.456Z,0.00
2019-05-13T01:39:24.314Z,0.00
2019-05-13T01:40:23.914Z,0.00
2019-05-13T01:41:24.035Z,0.00
2019-05-13T01:42:24.108Z,0.00
2019-05-13T01:43:24.548Z,0.00
2019-05-13T01:44:24.401Z,0.00
2019-05-13T01:45:24.089Z,0.00
2019-05-13T01:46:24.103Z,0.00
2019-05-13T01:47:24.081Z,0.00
2019-05-13T01:48:24.033Z,0.00
2019-05-13T01:49:24.135Z,0.00
2019-05-13T01:50:24.183Z,0.00
2019-05-13T01:51:23.940Z,0.00
2019-05-13T01:52:23.775Z,0.00
2019-05-13T01:53:24.441Z,0.00
2019-05-13T01:54:24.695Z,0.00
2019-05-13T01:55:24.454Z,0.00
2019-05-13T01:56:23.623Z,0.00
2019-05-13T01:57:23.897Z,0.00
2019-05-13T01:58:23.719Z,0.00
2019-05-13T01:59:23.918Z,0.00
2019-05-13T02:00:24.213Z,0.00
2019-05-13T02:01:24.184Z,0.00
2019-05-13T02:02:24.264Z,0.00
2019-05-13T02:03:24.654Z,0.00
2019-05-13T02:04:24.452Z,0.00
2019-05-13T02:05:24.219Z,0.00
2019-05-13T02:06:24.118Z,0.00
2019-05-13T02:07:24.436Z,0.00
2019-05-13T02:08:24.517Z,0.00
2019-05-13T02:09:24.454Z,0.00
2019-05-13T02:10:24.575Z,0.00
2019-05-13T02:11:23.878Z,0.00
2019-05-13T02:12:24.042Z,0.00
2019-05-13T02:13:24.497Z,0.00
2019-05-13T02:14:23.675Z,0.00
2019-05-13T02:15:23.330Z,0.00
2019-05-13T02:16:24.384Z,0.00
2019-05-13T02:17:23.425Z,0.00
2019-05-13T02:18:24.417Z,0.00
2019-05-13T02:19:24.476Z,0.00
2019-05-13T02:20:24.758Z,0.00
2019-05-13T02:21:24.120Z,0.00
2019-05-13T02:22:24.771Z,0.00
2019-05-13T02:23:23.855Z,0.00
2019-05-13T02:24:23.691Z,0.00
2019-05-13T02:25:23.723Z,0.00
2019-05-13T02:26:24.063Z,0.00
2019-05-13T02:27:24.904Z,0.00
2019-05-13T02:28:24.888Z,0.00
2019-05-13T02:29:24.526Z,0.00
2019-05-13T02:30:26.575Z,0.00
2019-05-13T02:31:39.603Z,0.00
2019-05-13T02:32:23.875Z,0.00
2019-05-13T02:33:23.207Z,0.00
2019-05-13T02:34:23.355Z,0.00
2019-05-13T02:35:23.188Z,0.00
2019-05-13T02:36:23.064Z,0.00
2019-05-13T02:37:23.330Z,0.00
2019-05-13T02:38:28.727Z,0.00
2019-05-13T02:39:23.780Z,0.00
2019-05-13T02:40:22.872Z,0.00
2019-05-13T02:41:23.086Z,0.00
2019-05-13T02:42:23.091Z,0.00
2019-05-13T02:43:23.839Z,0.00
2019-05-13T02:44:22.839Z,0.00
2019-05-13T02:45:22.871Z,0.00
2019-05-13T02:46:22.786Z,0.00
2019-05-13T02:47:22.854Z,0.00
2019-05-13T02:48:23.701Z,0.00
2019-05-13T02:49:23.293Z,0.00
2019-05-13T02:50:22.827Z,0.00
2019-05-13T02:51:23.196Z,0.00
2019-05-13T02:52:22.654Z,0.00
2019-05-13T02:53:23.596Z,0.00
2019-05-13T02:54:22.965Z,0.00
2019-05-13T02:55:22.604Z,0.00
2019-05-13T02:56:22.837Z,0.00
2019-05-13T02:57:23.392Z,0.00
2019-05-13T02:58:24.370Z,0.00
2019-05-13T02:59:22.945Z,0.00
2019-05-13T03:00:23.619Z,0.00
2019-05-13T03:01:22.637Z,0.00
2019-05-13T03:02:22.687Z,0.00
2019-05-13T03:03:23.415Z,0.00
2019-05-13T03:04:23.322Z,0.00
2019-05-13T03:05:22.501Z,0.00
2019-05-13T03:06:22.551Z,0.00
2019-05-13T03:07:23.463Z,0.00
2019-05-13T03:08:35.202Z,0.00
2019-05-13T03:09:23.450Z,0.00
2019-05-13T03:10:22.533Z,0.00
2019-05-13T03:11:22.895Z,0.00
2019-05-13T03:12:23.061Z,0.00
2019-05-13T03:13:23.684Z,0.00
2019-05-13T03:14:23.961Z,0.00
2019-05-13T03:15:23.197Z,0.00
2019-05-13T03:16:23.159Z,0.00
2019-05-13T03:17:22.670Z,0.00
2019-05-13T03:18:22.754Z,0.00
2019-05-13T03:19:22.721Z,0.00
2019-05-13T03:20:23.132Z,0.00
2019-05-13T03:21:23.332Z,0.00
2019-05-13T03:22:22.668Z,0.00
2019-05-13T03:23:22.932Z,0.00
2019-05-13T03:24:22.972Z,4.00
2019-05-13T03:25:23.053Z,4.00
2019-05-13T03:26:23.418Z,4.00
2019-05-13T03:27:25.060Z,4.00
2019-05-13T03:28:22.601Z,4.00
2019-05-13T03:29:22.464Z,4.00
2019-05-13T03:30:25.515Z,8.00
2019-05-13T03:31:26.532Z,8.00
2019-05-13T03:32:26.976Z,8.00
2019-05-13T03:33:27.902Z,8.00
2019-05-13T03:34:26.389Z,12.00
2019-05-13T03:35:26.691Z,8.00
2019-05-13T03:36:25.992Z,12.00
2019-05-13T03:37:26.299Z,16.00
2019-05-13T03:38:23.148Z,16.00
2019-05-13T03:39:22.509Z,16.00
2019-05-13T03:40:23.146Z,16.00
2019-05-13T03:41:22.911Z,20.00
2019-05-13T03:42:22.641Z,20.00
2019-05-13T03:43:23.026Z,24.00
2019-05-13T03:44:23.658Z,24.00
2019-05-13T03:45:22.126Z,32.00
2019-05-13T03:46:22.951Z,32.00
2019-05-13T03:47:23.059Z,36.00
2019-05-13T03:48:23.676Z,36.00
2019-05-13T03:49:23.281Z,40.00
2019-05-13T03:50:22.916Z,48.00
2019-05-13T03:51:22.344Z,48.00
2019-05-13T03:52:22.645Z,52.00
2019-05-13T03:53:23.396Z,52.00
2019-05-13T03:54:22.847Z,56.00
2019-05-13T03:55:22.947Z,60.00
2019-05-13T03:56:23.628Z,64.00
2019-05-13T03:57:23.234Z,64.00
2019-05-13T03:58:23.901Z,68.00
2019-05-13T03:59:22.682Z,72.00
2019-05-13T04:00:23.547Z,72.00
2019-05-13T04:01:22.481Z,76.00
2019-05-13T04:02:22.793Z,80.00
2019-05-13T04:03:22.753Z,84.00
2019-05-13T04:04:23.327Z,84.00
2019-05-13T04:05:23.431Z,88.00
2019-05-13T04:06:23.384Z,92.00
2019-05-13T04:07:23.758Z,96.00
2019-05-13T04:08:22.735Z,100.00
2019-05-13T04:09:30.703Z,104.00
2019-05-13T04:10:23.372Z,104.00
2019-05-13T04:11:22.610Z,112.00
2019-05-13T04:12:22.695Z,112.00
2019-05-13T04:13:23.218Z,116.00
2019-05-13T04:14:22.992Z,120.00
2019-05-13T04:15:23.409Z,124.00
2019-05-13T04:16:23.627Z,128.00
2019-05-13T04:17:24.313Z,136.00
2019-05-13T04:18:23.515Z,140.00
2019-05-13T04:19:23.140Z,144.00
2019-05-13T04:20:23.038Z,148.00
2019-05-13T04:21:22.791Z,152.00
2019-05-13T04:22:23.097Z,160.00
2019-05-13T04:23:23.313Z,164.00
2019-05-13T04:24:22.876Z,172.00
2019-05-13T04:25:23.169Z,180.00
2019-05-13T04:26:23.586Z,188.00
2019-05-13T04:27:23.381Z,192.00
2019-05-13T04:28:22.315Z,200.00
2019-05-13T04:29:23.466Z,204.00
2019-05-13T04:30:22.629Z,212.00
2019-05-13T04:31:22.782Z,212.00
2019-05-13T04:32:23.071Z,216.00
2019-05-13T04:33:22.993Z,212.00
2019-05-13T04:34:23.001Z,212.00
2019-05-13T04:35:23.302Z,216.00
2019-05-13T04:36:23.472Z,220.00
2019-05-13T04:37:22.450Z,224.00
2019-05-13T04:38:22.669Z,232.00
2019-05-13T04:39:40.209Z,236.00
2019-05-13T04:40:23.422Z,236.00
2019-05-13T04:41:23.005Z,240.00
2019-05-13T04:42:23.167Z,244.00
2019-05-13T04:43:23.504Z,252.00
2019-05-13T04:44:24.039Z,256.00
2019-05-13T04:45:23.846Z,264.00
2019-05-13T04:46:22.745Z,272.00
2019-05-13T04:47:22.883Z,280.00
2019-05-13T04:48:22.832Z,288.00
2019-05-13T04:49:23.373Z,300.00
2019-05-13T04:50:22.402Z,308.00
2019-05-13T04:51:22.587Z,316.00
2019-05-13T04:52:22.270Z,316.00
2019-05-13T04:53:22.604Z,316.00
2019-05-13T04:54:22.514Z,324.00
2019-05-13T04:55:22.869Z,336.00
2019-05-13T04:56:22.425Z,340.00
2019-05-13T04:57:22.695Z,336.00
2019-05-13T04:58:23.451Z,344.00
2019-05-13T04:59:22.691Z,364.00
2019-05-13T05:00:23.340Z,384.00
2019-05-13T05:01:23.672Z,400.00
2019-05-13T05:02:22.426Z,416.00
2019-05-13T05:03:32.057Z,428.00
2019-05-13T05:04:28.743Z,444.00
2019-05-13T05:05:22.695Z,448.00
2019-05-13T05:06:22.735Z,444.00
2019-05-13T05:07:22.255Z,460.00
2019-05-13T05:08:22.492Z,468.00
2019-05-13T05:09:22.522Z,472.00
2019-05-13T05:10:30.232Z,472.00
2019-05-13T05:11:22.442Z,488.00
2019-05-13T05:12:23.137Z,492.00
2019-05-13T05:13:22.103Z,504.00
2019-05-13T05:14:22.440Z,520.00
2019-05-13T05:15:23.388Z,528.00
2019-05-13T05:16:21.978Z,532.00
2019-05-13T05:17:22.611Z,532.00
2019-05-13T05:18:22.190Z,536.00
2019-05-13T05:19:23.618Z,544.00
2019-05-13T05:20:23.145Z,552.00
2019-05-13T05:21:21.818Z,560.00
2019-05-13T05:22:22.202Z,560.00
2019-05-13T05:23:21.555Z,572.00
2019-05-13T05:24:22.161Z,568.00
2019-05-13T05:25:22.071Z,564.00
2019-05-13T05:26:22.116Z,560.00
2019-05-13T05:27:21.419Z,556.00
2019-05-13T05:28:21.752Z,556.00
2019-05-13T05:29:21.772Z,560.00
2019-05-13T05:30:21.832Z,560.00
2019-05-13T05:31:22.991Z,560.00
2019-05-13T05:32:21.540Z,564.00
2019-05-13T05:33:21.495Z,568.00
2019-05-13T05:34:21.908Z,568.00
2019-05-13T05:35:22.307Z,576.00
2019-05-13T05:36:21.824Z,584.00
2019-05-13T05:37:22.320Z,596.00
2019-05-13T05:38:25.243Z,608.00
2019-05-13T05:39:22.605Z,612.00
2019-05-13T05:40:30.983Z,612.00
2019-05-13T05:41:21.786Z,596.00
2019-05-13T05:42:21.741Z,584.00
2019-05-13T05:43:22.266Z,592.00
2019-05-13T05:44:21.414Z,612.00
2019-05-13T05:45:21.998Z,644.00
2019-05-13T05:46:22.024Z,660.00
2019-05-13T05:47:21.320Z,632.00
2019-05-13T05:48:22.131Z,616.00
2019-05-13T05:49:21.379Z,612.00
2019-05-13T05:50:22.983Z,624.00
2019-05-13T05:51:22.132Z,628.00
2019-05-13T05:52:21.387Z,628.00
2019-05-13T05:53:21.859Z,624.00
2019-05-13T05:54:21.811Z,628.00
2019-05-13T05:55:21.350Z,628.00
2019-05-13T05:56:22.003Z,640.00
2019-05-13T05:57:22.482Z,648.00
2019-05-13T05:58:22.894Z,664.00
2019-05-13T05:59:21.751Z,680.00
2019-05-13T06:00:21.982Z,688.00
2019-05-13T06:01:23.188Z,700.00
2019-05-13T06:02:23.083Z,704.00
2019-05-13T06:03:21.802Z,716.00
2019-05-13T06:04:21.829Z,724.00
2019-05-13T06:05:21.355Z,732.00
2019-05-13T06:06:22.784Z,748.00
2019-05-13T06:07:21.948Z,764.00
2019-05-13T06:08:22.252Z,784.00
2019-05-13T06:09:21.375Z,796.00
2019-05-13T06:10:22.481Z,812.00
2019-05-13T06:11:22.268Z,828.00
2019-05-13T06:12:21.373Z,836.00
2019-05-13T06:13:21.459Z,848.00
2019-05-13T06:14:21.895Z,856.00
2019-05-13T06:15:22.568Z,876.00
2019-05-13T06:16:21.846Z,900.00
2019-05-13T06:17:21.927Z,908.00
2019-05-13T06:18:22.186Z,908.00
2019-05-13T06:19:22.361Z,896.00
2019-05-13T06:20:21.130Z,888.00
2019-05-13T06:21:21.466Z,872.00
2019-05-13T06:22:21.651Z,856.00
2019-05-13T06:23:22.145Z,852.00
2019-05-13T06:24:24.585Z,848.00
2019-05-13T06:25:23.330Z,844.00
2019-05-13T06:26:23.503Z,844.00
2019-05-13T06:27:21.314Z,840.00
2019-05-13T06:28:21.764Z,876.00
2019-05-13T06:29:22.238Z,840.00
2019-05-13T06:30:21.707Z,828.00
2019-05-13T06:31:21.559Z,828.00
2019-05-13T06:32:25.298Z,844.00
2019-05-13T06:33:21.353Z,852.00
2019-05-13T06:34:21.516Z,844.00
2019-05-13T06:35:21.833Z,888.00
2019-05-13T06:36:22.060Z,924.00
2019-05-13T06:37:21.694Z,952.00
2019-05-13T06:38:22.533Z,1052.00
2019-05-13T06:39:22.242Z,1004.00
2019-05-13T06:40:21.429Z,996.00
2019-05-13T06:41:22.009Z,1036.00
2019-05-13T06:42:22.196Z,940.00
2019-05-13T06:43:21.164Z,996.00
2019-05-13T06:44:21.452Z,980.00
2019-05-13T06:45:21.654Z,1012.00
2019-05-13T06:46:21.891Z,948.00
2019-05-13T06:47:21.999Z,912.00
2019-05-13T06:48:20.043Z,964.00
2019-05-13T06:49:21.626Z,1120.00
2019-05-13T06:50:21.904Z,1148.00
2019-05-13T06:51:22.055Z,1024.00
2019-05-13T06:52:21.204Z,1076.00
2019-05-13T06:53:21.753Z,1204.00
2019-05-13T06:54:21.890Z,1120.00
2019-05-13T06:55:21.300Z,1008.00
2019-05-13T06:56:21.810Z,1268.00
2019-05-13T06:57:22.023Z,1088.00
2019-05-13T06:58:22.104Z,1372.00
2019-05-13T06:59:22.174Z,1212.00
2019-05-13T07:00:21.521Z,1120.00
2019-05-13T07:01:21.686Z,1056.00
2019-05-13T07:02:21.604Z,1320.00
2019-05-13T07:03:22.006Z,1256.00
2019-05-13T07:04:21.928Z,1120.00
2019-05-13T07:05:22.436Z,1132.00
2019-05-13T07:06:21.668Z,1200.00
2019-05-13T07:07:21.892Z,1184.00
2019-05-13T07:08:22.035Z,1184.00
2019-05-13T07:09:21.582Z,1192.00
2019-05-13T07:10:21.635Z,1152.00
2019-05-13T07:11:22.390Z,1200.00
2019-05-13T07:12:21.953Z,1228.00
2019-05-13T07:13:21.827Z,1264.00
2019-05-13T07:14:21.760Z,1248.00
2019-05-13T07:15:22.205Z,1216.00
2019-05-13T07:16:22.220Z,1208.00
2019-05-13T07:17:22.353Z,1160.00
2019-05-13T07:18:21.757Z,1160.00
2019-05-13T07:19:19.706Z,1164.00
2019-05-13T07:20:22.320Z,1044.00
2019-05-13T07:21:21.709Z,1044.00
2019-05-13T07:22:22.727Z,1052.00
2019-05-13T07:23:22.240Z,1344.00
2019-05-13T07:24:21.446Z,1036.00
2019-05-13T07:25:22.056Z,1172.00
2019-05-13T07:26:21.962Z,1020.00
2019-05-13T07:27:19.640Z,972.00
2019-05-13T07:28:21.938Z,1464.00
2019-05-13T07:29:20.060Z,1192.00
2019-05-13T07:30:21.250Z,1212.00
2019-05-13T07:31:21.610Z,1052.00
2019-05-13T07:32:21.957Z,1044.00
2019-05-13T07:33:21.363Z,1072.00
2019-05-13T07:34:24.113Z,1040.00
2019-05-13T07:35:22.671Z,1696.00
2019-05-13T07:36:19.522Z,1324.00
2019-05-13T07:37:21.258Z,1344.00
2019-05-13T07:38:22.017Z,1228.00
2019-05-13T07:39:22.187Z,1296.00
2019-05-13T07:40:22.062Z,1304.00
2019-05-13T07:41:34.768Z,1172.00
2019-05-13T07:42:22.193Z,1124.00
2019-05-13T07:43:21.506Z,1108.00
2019-05-13T07:44:19.433Z,1104.00
2019-05-13T07:45:21.286Z,1096.00
2019-05-13T07:46:21.636Z,1068.00
2019-05-13T07:47:22.061Z,1076.00
2019-05-13T07:48:21.521Z,1092.00
2019-05-13T07:49:22.501Z,1176.00
2019-05-13T07:50:21.685Z,1132.00
2019-05-13T07:51:19.359Z,1156.00
2019-05-13T07:52:19.360Z,1104.00
2019-05-13T07:53:21.945Z,1364.00
2019-05-13T07:54:21.866Z,1648.00
2019-05-13T07:55:19.326Z,1324.00
2019-05-13T07:56:21.168Z,1176.00
2019-05-13T07:57:21.445Z,1292.00
2019-05-13T07:58:22.174Z,1608.00
2019-05-13T07:59:21.125Z,1520.00
2019-05-13T08:00:21.631Z,1648.00
2019-05-13T08:01:21.903Z,2140.00
2019-05-13T08:02:21.710Z,1732.00
2019-05-13T08:03:21.391Z,2056.00
2019-05-13T08:04:23.658Z,2240.00
2019-05-13T08:05:22.283Z,2204.00
2019-05-13T08:06:21.763Z,2560.00
2019-05-13T08:07:19.205Z,2368.00
2019-05-13T08:08:19.172Z,2168.00
2019-05-13T08:09:21.466Z,2116.00
2019-05-13T08:10:21.731Z,1868.00
2019-05-13T08:11:19.147Z,1948.00
2019-05-13T08:12:21.457Z,2068.00
2019-05-13T08:13:19.123Z,2116.00
2019-05-13T08:14:21.610Z,1952.00
2019-05-13T08:15:19.101Z,2124.00
2019-05-13T08:16:22.091Z,2228.00
2019-05-13T08:17:19.101Z,2300.00
2019-05-13T08:18:19.073Z,2608.00
2019-05-13T08:19:21.623Z,2696.00
2019-05-13T08:20:19.044Z,2544.00
2019-05-13T08:21:21.369Z,2316.00
2019-05-13T08:22:21.826Z,2116.00
2019-05-13T08:23:21.553Z,1844.00
2019-05-13T08:24:19.003Z,1664.00
2019-05-13T08:25:18.993Z,1592.00
2019-05-13T08:26:21.506Z,1608.00
2019-05-13T08:27:21.643Z,1744.00
2019-05-13T08:28:22.382Z,1880.00
2019-05-13T08:29:18.950Z,2072.00
2019-05-13T08:30:18.943Z,2852.00
2019-05-13T08:31:21.432Z,3064.00
2019-05-13T08:32:18.918Z,2800.00
2019-05-13T08:33:18.924Z,2772.00
2019-05-13T08:34:18.897Z,2776.00
2019-05-13T08:35:18.885Z,2712.00
2019-05-13T08:36:18.876Z,2968.00
2019-05-13T08:37:21.525Z,3364.00
2019-05-13T08:38:18.868Z,3204.00
2019-05-13T08:39:21.442Z,3064.00
2019-05-13T08:40:20.328Z,2944.00
2019-05-13T08:41:21.150Z,3156.00
2019-05-13T08:42:20.033Z,3464.00
2019-05-13T08:43:18.825Z,3028.00
2019-05-13T08:44:21.465Z,2924.00
2019-05-13T08:45:18.785Z,2700.00
2019-05-13T08:46:18.770Z,2444.00
2019-05-13T08:47:18.760Z,2812.00
2019-05-13T08:48:18.763Z,2728.00
2019-05-13T08:49:18.738Z,2540.00
2019-05-13T08:50:18.727Z,2520.00
2019-05-13T08:51:18.716Z,2812.00
2019-05-13T08:52:18.706Z,2600.00
2019-05-13T08:53:21.124Z,2844.00
2019-05-13T08:54:18.691Z,3240.00
2019-05-13T08:55:21.264Z,3392.00
2019-05-13T08:56:18.663Z,3380.00
2019-05-13T08:57:18.652Z,3048.00
2019-05-13T08:58:18.656Z,2524.00
2019-05-13T08:59:18.632Z,2056.00
2019-05-13T09:00:18.634Z,2164.00
2019-05-13T09:01:18.611Z,2120.00
2019-05-13T09:02:18.604Z,2188.00
2019-05-13T09:03:18.606Z,1780.00
2019-05-13T09:04:18.580Z,1552.00
2019-05-13T09:05:18.571Z,1900.00
2019-05-13T09:06:18.572Z,1972.00
2019-05-13T09:07:21.838Z,1692.00
2019-05-13T09:08:22.160Z,1364.00
2019-05-13T09:09:18.524Z,1120.00
2019-05-13T09:10:18.518Z,1108.00
2019-05-13T09:11:18.509Z,1044.00
2019-05-13T09:12:29.599Z,1056.00
2019-05-13T09:13:19.496Z,1044.00
2019-05-13T09:14:18.473Z,1136.00
2019-05-13T09:15:18.461Z,1352.00
2019-05-13T09:16:18.453Z,2248.00
2019-05-13T09:17:18.446Z,2396.00
2019-05-13T09:18:18.463Z,1792.00
2019-05-13T09:19:18.418Z,1296.00
2019-05-13T09:20:18.408Z,1284.00
2019-05-13T09:21:18.397Z,1864.00
2019-05-13T09:22:18.394Z,2008.00
2019-05-13T09:23:18.394Z,1808.00
2019-05-13T09:24:26.073Z,1700.00
2019-05-13T09:25:21.471Z,1560.00
2019-05-13T09:26:18.345Z,1508.00
2019-05-13T09:27:18.333Z,1712.00
2019-05-13T09:28:18.341Z,1724.00
2019-05-13T09:29:18.313Z,1760.00
2019-05-13T09:30:18.303Z,1760.00
2019-05-13T09:31:18.291Z,1688.00
2019-05-13T09:32:18.282Z,1684.00
2019-05-13T09:33:18.300Z,1804.00
2019-05-13T09:34:18.262Z,2072.00
2019-05-13T09:35:18.253Z,2292.00
2019-05-13T09:36:18.239Z,2388.00
2019-05-13T09:37:18.228Z,2224.00
2019-05-13T09:38:18.219Z,2084.00
2019-05-13T09:39:18.226Z,1860.00
2019-05-13T09:40:18.196Z,1824.00
2019-05-13T09:41:18.192Z,1840.00
2019-05-13T09:42:18.176Z,1972.00
2019-05-13T09:43:18.167Z,1976.00
2019-05-13T09:44:18.175Z,2036.00
2019-05-13T09:45:18.149Z,2300.00
2019-05-13T09:46:18.133Z,2400.00
2019-05-13T09:47:18.124Z,2220.00
2019-05-13T09:48:18.112Z,1984.00
2019-05-13T09:49:20.057Z,1856.00
2019-05-13T09:50:28.288Z,1788.00
2019-05-13T09:51:21.466Z,1704.00
2019-05-13T09:52:18.071Z,1660.00
2019-05-13T09:53:18.067Z,1680.00
2019-05-13T09:54:18.075Z,1712.00
2019-05-13T09:55:26.397Z,1712.00
2019-05-13T09:56:19.036Z,1804.00
2019-05-13T09:57:18.017Z,1932.00
2019-05-13T09:58:18.008Z,2796.00
2019-05-13T09:59:18.013Z,3704.00
2019-05-13T10:00:17.992Z,3268.00
2019-05-13T10:01:17.976Z,3184.00
2019-05-13T10:02:17.970Z,2844.00
2019-05-13T10:03:17.956Z,2600.00
2019-05-13T10:04:17.962Z,2448.00
2019-05-13T10:05:17.939Z,2348.00
2019-05-13T10:06:17.922Z,2204.00
2019-05-13T10:07:17.918Z,2088.00
2019-05-13T10:08:17.902Z,2064.00
2019-05-13T10:09:17.905Z,2108.00
2019-05-13T10:10:17.883Z,2252.00
2019-05-13T10:11:17.874Z,2584.00
2019-05-13T10:12:17.859Z,2272.00
2019-05-13T10:13:17.850Z,2244.00
2019-05-13T10:14:17.849Z,2428.00
2019-05-13T10:15:17.830Z,2284.00
2019-05-13T10:16:17.826Z,1888.00
2019-05-13T10:17:17.804Z,1488.00
2019-05-13T10:18:17.802Z,1300.00
2019-05-13T10:19:17.796Z,1472.00
2019-05-13T10:20:17.781Z,1860.00
2019-05-13T10:21:17.772Z,1932.00
2019-05-13T10:22:17.757Z,2412.00
2019-05-13T10:23:17.744Z,3076.00
2019-05-13T10:24:17.742Z,3264.00
2019-05-13T10:25:17.775Z,3248.00
2019-05-13T10:26:17.708Z,3172.00
2019-05-13T10:27:19.012Z,2964.00
2019-05-13T10:28:17.690Z,2880.00
2019-05-13T10:29:17.690Z,3112.00
2019-05-13T10:30:17.665Z,3432.00
2019-05-13T10:31:17.655Z,3460.00
2019-05-13T10:32:17.643Z,3564.00
2019-05-13T10:33:17.644Z,3492.00
2019-05-13T10:34:17.635Z,3480.00
2019-05-13T10:35:17.635Z,3324.00
2019-05-13T10:36:17.600Z,2940.00
2019-05-13T10:37:17.591Z,2516.00
2019-05-13T10:38:17.598Z,2208.00
2019-05-13T10:39:17.584Z,1956.00
2019-05-13T10:40:17.559Z,1720.00
2019-05-13T10:41:17.548Z,1540.00
2019-05-13T10:42:17.538Z,1416.00
2019-05-13T10:43:29.398Z,1288.00
2019-05-13T10:44:18.542Z,1168.00
2019-05-13T10:45:17.515Z,1108.00
2019-05-13T10:46:17.505Z,1088.00
2019-05-13T10:47:17.484Z,1056.00
2019-05-13T10:48:17.475Z,1044.00
2019-05-13T10:49:17.483Z,976.00
2019-05-13T10:50:17.452Z,912.00
2019-05-13T10:51:17.450Z,892.00
2019-05-13T10:52:17.444Z,900.00
2019-05-13T10:53:17.421Z,964.00
2019-05-13T10:54:17.410Z,964.00
2019-05-13T10:55:17.411Z,944.00
2019-05-13T10:56:17.389Z,924.00
2019-05-13T10:57:17.381Z,896.00
2019-05-13T10:58:17.375Z,936.00
2019-05-13T10:59:17.357Z,1124.00
2019-05-13T11:00:17.360Z,1344.00
2019-05-13T11:01:17.338Z,1592.00
2019-05-13T11:02:17.329Z,1768.00
2019-05-13T11:03:17.321Z,2064.00
2019-05-13T11:04:17.321Z,2308.00
2019-05-13T11:05:17.307Z,2020.00
2019-05-13T11:06:17.284Z,1696.00
2019-05-13T11:07:17.275Z,1508.00
2019-05-13T11:08:17.268Z,1404.00
2019-05-13T11:09:17.256Z,1324.00
2019-05-13T11:10:17.278Z,1292.00
2019-05-13T11:11:17.231Z,1228.00
2019-05-13T11:12:17.223Z,1176.00
2019-05-13T11:13:17.209Z,1132.00
2019-05-13T11:14:17.206Z,1080.00
2019-05-13T11:15:17.219Z,1048.00
2019-05-13T11:16:17.177Z,1020.00
2019-05-13T11:17:23.317Z,984.00
2019-05-13T11:18:19.287Z,956.00
2019-05-13T11:19:17.150Z,956.00
2019-05-13T11:20:17.191Z,932.00
2019-05-13T11:21:17.126Z,912.00
2019-05-13T11:22:17.112Z,924.00
2019-05-13T11:23:17.102Z,980.00
2019-05-13T11:24:17.093Z,1036.00
2019-05-13T11:25:17.098Z,1120.00
2019-05-13T11:26:17.071Z,1184.00
2019-05-13T11:27:17.062Z,1240.00
2019-05-13T11:28:17.049Z,1316.00
2019-05-13T11:29:17.045Z,1456.00
2019-05-13T11:30:17.042Z,1664.00
2019-05-13T11:31:17.033Z,1964.00
2019-05-13T11:32:17.058Z,2312.00
2019-05-13T11:33:17.011Z,2724.00
2019-05-13T11:34:17.009Z,3200.00
2019-05-13T11:35:16.999Z,3660.00
2019-05-13T11:36:19.191Z,3708.00
2019-05-13T11:37:16.953Z,3512.00
2019-05-13T11:38:16.943Z,3292.00
2019-05-13T11:39:16.970Z,2996.00
2019-05-13T11:40:16.939Z,2668.00
2019-05-13T11:41:16.913Z,2412.00
2019-05-13T11:42:16.898Z,2200.00
2019-05-13T11:43:16.889Z,2048.00
2019-05-13T11:44:17.284Z,1960.00
2019-05-13T11:45:16.881Z,1784.00
2019-05-13T11:46:16.862Z,1700.00
2019-05-13T11:47:16.848Z,1640.00
2019-05-13T11:48:16.837Z,1580.00
2019-05-13T11:49:16.826Z,1520.00
2019-05-13T11:50:16.833Z,1448.00
2019-05-13T11:51:16.810Z,1384.00
2019-05-13T11:52:16.794Z,1360.00
2019-05-13T11:53:31.417Z,1376.00
2019-05-13T11:54:17.771Z,1404.00
2019-05-13T11:55:16.787Z,1488.00
2019-05-13T11:56:16.753Z,1604.00
2019-05-13T11:57:16.746Z,1728.00
2019-05-13T11:58:16.730Z,1876.00
2019-05-13T11:59:16.720Z,1996.00
2019-05-13T12:00:16.710Z,2124.00
2019-05-13T12:01:16.762Z,2264.00
2019-05-13T12:02:16.690Z,2452.00
2019-05-13T12:03:16.683Z,2680.00
2019-05-13T12:04:16.687Z,3012.00
2019-05-13T12:05:16.657Z,3372.00
2019-05-13T12:06:16.659Z,3700.00
2019-05-13T12:07:16.643Z,4072.00
2019-05-13T12:08:16.627Z,4704.00
2019-05-13T12:09:16.627Z,4916.00
2019-05-13T12:10:16.618Z,4644.00
2019-05-13T12:11:16.606Z,4064.00
2019-05-13T12:12:16.583Z,3356.00
2019-05-13T12:13:16.572Z,2760.00
2019-05-13T12:14:39.313Z,2344.00
2019-05-13T12:15:28.907Z,1988.00
2019-05-13T12:16:17.553Z,1744.00
2019-05-13T12:17:16.529Z,1592.00
2019-05-13T12:18:16.521Z,1440.00
2019-05-13T12:19:16.514Z,1344.00
2019-05-13T12:20:16.497Z,1272.00
2019-05-13T12:21:16.502Z,1236.00
2019-05-13T12:22:16.475Z,1204.00
2019-05-13T12:23:16.466Z,1200.00
2019-05-13T12:24:16.458Z,1176.00
2019-05-13T12:25:16.451Z,1224.00
2019-05-13T12:26:16.448Z,1352.00
2019-05-13T12:27:16.423Z,1372.00
2019-05-13T12:28:16.414Z,1304.00
2019-05-13T12:29:19.132Z,1220.00
2019-05-13T12:30:16.398Z,1124.00
2019-05-13T12:31:16.397Z,1048.00
2019-05-13T12:32:16.394Z,1000.00